sensor_id;sensor_type;location;lat;lon;timestamp;temperature;humidity
27413;DHT22;14871;52.702;5.230;2023-02-28T00:00:13;9.50;99.80
27413;DHT22;14871;52.702;5.230;2023-02-28T00:02:40;9.50;99.50
27413;DHT22;14871;52.702;5.230;2023-02-28T00:05:07;9.50;99.60
27413;DHT22;14871;52.702;5.230;2023-02-28T00:07:34;9.50;99.70
27413;DHT22;14871;52.702;5.230;2023-02-28T00:09:59;9.40;99.90
27413;DHT22;14871;52.702;5.230;2023-02-28T00:12:25;9.50;99.90
27413;DHT22;14871;52.702;5.230;2023-02-28T00:14:52;9.40;99.90
27413;DHT22;14871;52.702;5.230;2023-02-28T00:17:17;9.50;99.90
27413;DHT22;14871;52.702;5.230;2023-02-28T00:19:43;9.40;99.90
27413;DHT22;14871;52.702;5.230;2023-02-28T00:22:09;9.40;99.90
27413;DHT22;14871;52.702;5.230;2023-02-28T00:24:35;9.50;99.90
27413;DHT22;14871;52.702;5.230;2023-02-28T00:27:00;9.40;99.90
27413;DHT22;14871;52.702;5.230;2023-02-28T00:29:26;9.40;99.90
27413;DHT22;14871;52.702;5.230;2023-02-28T00:31:51;9.40;99.90
27413;DHT22;14871;52.702;5.230;2023-02-28T00:34:17;9.40;99.90
27413;DHT22;14871;52.702;5.230;2023-02-28T00:36:43;9.40;99.90
27413;DHT22;14871;52.702;5.230;2023-02-28T00:39:11;9.40;99.90
27413;DHT22;14871;52.702;5.230;2023-02-28T00:41:37;9.40;99.90
27413;DHT22;14871;52.702;5.230;2023-02-28T00:44:02;9.40;99.90
27413;DHT22;14871;52.702;5.230;2023-02-28T00:46:28;9.30;99.90
27413;DHT22;14871;52.702;5.230;2023-02-28T00:48:53;9.40;99.90
27413;DHT22;14871;52.702;5.230;2023-02-28T00:51:19;9.40;99.90
27413;DHT22;14871;52.702;5.230;2023-02-28T00:53:45;9.40;99.90
27413;DHT22;14871;52.702;5.230;2023-02-28T00:56:10;9.40;99.90
27413;DHT22;14871;52.702;5.230;2023-02-28T00:58:36;9.30;99.90
27413;DHT22;14871;52.702;5.230;2023-02-28T01:01:02;9.30;99.90
27413;DHT22;14871;52.702;5.230;2023-02-28T01:03:28;9.30;99.90
27413;DHT22;14871;52.702;5.230;2023-02-28T01:05:54;9.40;99.90
27413;DHT22;14871;52.702;5.230;2023-02-28T01:08:19;9.40;99.90
27413;DHT22;14871;52.702;5.230;2023-02-28T01:10:45;9.30;99.90
27413;DHT22;14871;52.702;5.230;2023-02-28T01:13:13;9.40;99.90
27413;DHT22;14871;52.702;5.230;2023-02-28T01:15:43;9.30;99.90
27413;DHT22;14871;52.702;5.230;2023-02-28T01:18:10;9.40;99.90
27413;DHT22;14871;52.702;5.230;2023-02-28T01:20:37;9.40;99.90
27413;DHT22;14871;52.702;5.230;2023-02-28T01:23:03;9.40;99.90
27413;DHT22;14871;52.702;5.230;2023-02-28T01:25:28;9.30;99.90
27413;DHT22;14871;52.702;5.230;2023-02-28T01:27:54;9.30;99.90
27413;DHT22;14871;52.702;5.230;2023-02-28T01:30:19;9.30;99.90
27413;DHT22;14871;52.702;5.230;2023-02-28T01:32:45;9.20;99.90
27413;DHT22;14871;52.702;5.230;2023-02-28T01:35:11;9.20;99.90
27413;DHT22;14871;52.702;5.230;2023-02-28T01:37:36;9.10;99.90
27413;DHT22;14871;52.702;5.230;2023-02-28T01:40:03;9.20;99.90
27413;DHT22;14871;52.702;5.230;2023-02-28T01:42:28;9.10;99.90
27413;DHT22;14871;52.702;5.230;2023-02-28T01:47:40;9.10;99.90
27413;DHT22;14871;52.702;5.230;2023-02-28T01:50:11;9.10;99.90
27413;DHT22;14871;52.702;5.230;2023-02-28T01:52:37;9.10;99.90
27413;DHT22;14871;52.702;5.230;2023-02-28T01:55:04;9.00;99.90
27413;DHT22;14871;52.702;5.230;2023-02-28T01:57:35;9.00;99.90
27413;DHT22;14871;52.702;5.230;2023-02-28T02:00:08;9.00;99.90
27413;DHT22;14871;52.702;5.230;2023-02-28T02:02:36;9.00;99.90
27413;DHT22;14871;52.702;5.230;2023-02-28T02:05:12;8.90;99.90
27413;DHT22;14871;52.702;5.230;2023-02-28T02:07:41;8.90;99.90
27413;DHT22;14871;52.702;5.230;2023-02-28T02:10:17;8.90;99.90
27413;DHT22;14871;52.702;5.230;2023-02-28T02:15:40;8.80;99.90
27413;DHT22;14871;52.702;5.230;2023-02-28T02:21:23;8.80;99.90
27413;DHT22;14871;52.702;5.230;2023-02-28T02:29:49;8.90;99.90
27413;DHT22;14871;52.702;5.230;2023-02-28T02:35:26;8.80;99.90
27413;DHT22;14871;52.702;5.230;2023-02-28T02:38:11;8.80;99.90
27413;DHT22;14871;52.702;5.230;2023-02-28T02:40:56;8.80;99.90
27413;DHT22;14871;52.702;5.230;2023-02-28T02:43:36;8.80;99.90
27413;DHT22;14871;52.702;5.230;2023-02-28T02:46:10;8.80;99.90
27413;DHT22;14871;52.702;5.230;2023-02-28T02:48:39;8.80;99.90
27413;DHT22;14871;52.702;5.230;2023-02-28T02:51:11;8.80;99.90
27413;DHT22;14871;52.702;5.230;2023-02-28T02:53:49;8.80;99.90
27413;DHT22;14871;52.702;5.230;2023-02-28T02:56:22;8.80;99.90
27413;DHT22;14871;52.702;5.230;2023-02-28T02:58:50;8.80;99.90
27413;DHT22;14871;52.702;5.230;2023-02-28T03:01:21;8.80;99.90
27413;DHT22;14871;52.702;5.230;2023-02-28T03:03:56;8.70;99.90
27413;DHT22;14871;52.702;5.230;2023-02-28T03:06:22;8.70;99.90
27413;DHT22;14871;52.702;5.230;2023-02-28T03:08:48;8.80;99.90
27413;DHT22;14871;52.702;5.230;2023-02-28T03:11:15;8.80;99.90
27413;DHT22;14871;52.702;5.230;2023-02-28T03:19:24;8.80;99.90
27413;DHT22;14871;52.702;5.230;2023-02-28T03:22:04;8.80;99.90
27413;DHT22;14871;52.702;5.230;2023-02-28T03:27:16;8.70;99.90
27413;DHT22;14871;52.702;5.230;2023-02-28T03:29:50;8.70;99.90
27413;DHT22;14871;52.702;5.230;2023-02-28T03:32:43;8.80;99.90
27413;DHT22;14871;52.702;5.230;2023-02-28T03:35:12;8.80;99.90
27413;DHT22;14871;52.702;5.230;2023-02-28T03:37:41;8.70;99.90
27413;DHT22;14871;52.702;5.230;2023-02-28T03:40:30;8.70;99.90
27413;DHT22;14871;52.702;5.230;2023-02-28T03:43:07;8.80;99.90
27413;DHT22;14871;52.702;5.230;2023-02-28T03:45:37;8.80;99.90
27413;DHT22;14871;52.702;5.230;2023-02-28T03:48:18;8.70;99.90
27413;DHT22;14871;52.702;5.230;2023-02-28T03:50:48;8.80;99.90
27413;DHT22;14871;52.702;5.230;2023-02-28T03:53:21;8.80;99.90
27413;DHT22;14871;52.702;5.230;2023-02-28T03:55:54;8.80;99.90
27413;DHT22;14871;52.702;5.230;2023-02-28T03:58:41;8.80;99.90
27413;DHT22;14871;52.702;5.230;2023-02-28T04:04:31;8.80;99.90
27413;DHT22;14871;52.702;5.230;2023-02-28T04:07:05;8.70;99.90
27413;DHT22;14871;52.702;5.230;2023-02-28T04:09:31;8.80;99.90
27413;DHT22;14871;52.702;5.230;2023-02-28T04:11:56;8.70;99.90
27413;DHT22;14871;52.702;5.230;2023-02-28T04:14:23;8.70;99.90
27413;DHT22;14871;52.702;5.230;2023-02-28T04:16:48;8.70;99.90
27413;DHT22;14871;52.702;5.230;2023-02-28T04:19:14;8.70;99.90
27413;DHT22;14871;52.702;5.230;2023-02-28T04:21:50;8.70;99.90
27413;DHT22;14871;52.702;5.230;2023-02-28T04:24:21;8.70;99.90
27413;DHT22;14871;52.702;5.230;2023-02-28T04:26:50;8.80;99.90
27413;DHT22;14871;52.702;5.230;2023-02-28T04:29:23;8.70;99.90
27413;DHT22;14871;52.702;5.230;2023-02-28T04:31:49;8.80;99.90
27413;DHT22;14871;52.702;5.230;2023-02-28T04:34:15;8.80;99.90
27413;DHT22;14871;52.702;5.230;2023-02-28T04:36:41;8.80;99.90
27413;DHT22;14871;52.702;5.230;2023-02-28T04:39:06;8.70;99.90
27413;DHT22;14871;52.702;5.230;2023-02-28T04:41:32;8.70;99.90
27413;DHT22;14871;52.702;5.230;2023-02-28T04:43:58;8.80;99.90
27413;DHT22;14871;52.702;5.230;2023-02-28T04:46:23;8.80;99.90
27413;DHT22;14871;52.702;5.230;2023-02-28T04:48:49;8.80;99.90
27413;DHT22;14871;52.702;5.230;2023-02-28T04:51:17;8.80;99.90
27413;DHT22;14871;52.702;5.230;2023-02-28T04:53:43;8.80;99.90
27413;DHT22;14871;52.702;5.230;2023-02-28T04:56:12;8.80;99.90
27413;DHT22;14871;52.702;5.230;2023-02-28T04:58:38;8.80;99.90
27413;DHT22;14871;52.702;5.230;2023-02-28T05:01:13;8.70;99.90
27413;DHT22;14871;52.702;5.230;2023-02-28T05:03:41;8.80;99.90
27413;DHT22;14871;52.702;5.230;2023-02-28T05:06:11;8.70;99.90
27413;DHT22;14871;52.702;5.230;2023-02-28T05:08:37;8.70;99.90
27413;DHT22;14871;52.702;5.230;2023-02-28T05:11:05;8.70;99.90
27413;DHT22;14871;52.702;5.230;2023-02-28T05:13:31;8.70;99.90
27413;DHT22;14871;52.702;5.230;2023-02-28T05:15:57;8.70;99.90
27413;DHT22;14871;52.702;5.230;2023-02-28T05:18:22;8.70;99.90
27413;DHT22;14871;52.702;5.230;2023-02-28T05:20:48;8.70;99.90
27413;DHT22;14871;52.702;5.230;2023-02-28T05:23:14;8.70;99.90
27413;DHT22;14871;52.702;5.230;2023-02-28T05:25:41;8.60;99.90
27413;DHT22;14871;52.702;5.230;2023-02-28T05:28:07;8.60;99.90
27413;DHT22;14871;52.702;5.230;2023-02-28T05:30:33;8.30;99.90
27413;DHT22;14871;52.702;5.230;2023-02-28T05:32:59;8.20;99.90
27413;DHT22;14871;52.702;5.230;2023-02-28T05:35:25;8.00;99.90
27413;DHT22;14871;52.702;5.230;2023-02-28T05:37:51;8.00;99.90
27413;DHT22;14871;52.702;5.230;2023-02-28T05:40:17;7.70;99.90
27413;DHT22;14871;52.702;5.230;2023-02-28T05:42:44;7.30;99.90
27413;DHT22;14871;52.702;5.230;2023-02-28T05:45:10;7.20;99.90
27413;DHT22;14871;52.702;5.230;2023-02-28T05:47:36;7.20;99.90
27413;DHT22;14871;52.702;5.230;2023-02-28T05:50:02;7.20;99.90
27413;DHT22;14871;52.702;5.230;2023-02-28T05:52:28;7.20;99.90
27413;DHT22;14871;52.702;5.230;2023-02-28T05:54:55;7.30;99.90
27413;DHT22;14871;52.702;5.230;2023-02-28T05:57:21;7.10;99.90
27413;DHT22;14871;52.702;5.230;2023-02-28T05:59:47;7.20;99.90
27413;DHT22;14871;52.702;5.230;2023-02-28T06:02:14;7.30;99.90
27413;DHT22;14871;52.702;5.230;2023-02-28T06:04:40;7.20;99.90
27413;DHT22;14871;52.702;5.230;2023-02-28T06:07:07;7.20;99.90
27413;DHT22;14871;52.702;5.230;2023-02-28T06:09:33;7.10;99.90
27413;DHT22;14871;52.702;5.230;2023-02-28T06:12:00;7.10;99.90
27413;DHT22;14871;52.702;5.230;2023-02-28T06:14:28;7.20;99.90
27413;DHT22;14871;52.702;5.230;2023-02-28T06:16:53;7.20;99.90
27413;DHT22;14871;52.702;5.230;2023-02-28T06:19:19;7.10;99.90
27413;DHT22;14871;52.702;5.230;2023-02-28T06:21:49;7.20;99.90
27413;DHT22;14871;52.702;5.230;2023-02-28T06:24:18;6.90;99.90
27413;DHT22;14871;52.702;5.230;2023-02-28T06:26:44;6.60;99.90
27413;DHT22;14871;52.702;5.230;2023-02-28T06:29:09;6.50;99.90
27413;DHT22;14871;52.702;5.230;2023-02-28T06:31:35;6.40;99.90
27413;DHT22;14871;52.702;5.230;2023-02-28T06:34:00;6.60;99.90
27413;DHT22;14871;52.702;5.230;2023-02-28T06:36:26;6.40;99.90
27413;DHT22;14871;52.702;5.230;2023-02-28T06:38:52;6.40;99.90
27413;DHT22;14871;52.702;5.230;2023-02-28T06:41:21;6.30;99.90
27413;DHT22;14871;52.702;5.230;2023-02-28T06:43:47;6.30;99.90
27413;DHT22;14871;52.702;5.230;2023-02-28T06:46:13;6.30;99.90
27413;DHT22;14871;52.702;5.230;2023-02-28T06:48:39;6.30;99.90
27413;DHT22;14871;52.702;5.230;2023-02-28T06:51:08;6.10;99.90
27413;DHT22;14871;52.702;5.230;2023-02-28T06:53:34;6.10;99.90
27413;DHT22;14871;52.702;5.230;2023-02-28T06:56:04;6.00;99.90
27413;DHT22;14871;52.702;5.230;2023-02-28T06:58:31;6.00;99.90
27413;DHT22;14871;52.702;5.230;2023-02-28T07:00:57;6.10;99.90
27413;DHT22;14871;52.702;5.230;2023-02-28T07:03:22;5.80;99.90
27413;DHT22;14871;52.702;5.230;2023-02-28T07:05:48;5.70;99.90
27413;DHT22;14871;52.702;5.230;2023-02-28T07:08:15;5.90;99.90
27413;DHT22;14871;52.702;5.230;2023-02-28T07:10:41;5.90;99.90
27413;DHT22;14871;52.702;5.230;2023-02-28T07:13:08;5.80;99.90
27413;DHT22;14871;52.702;5.230;2023-02-28T07:15:34;5.60;99.90
27413;DHT22;14871;52.702;5.230;2023-02-28T07:18:00;5.60;99.90
27413;DHT22;14871;52.702;5.230;2023-02-28T07:20:25;5.70;99.90
27413;DHT22;14871;52.702;5.230;2023-02-28T07:22:51;5.60;99.90
27413;DHT22;14871;52.702;5.230;2023-02-28T07:25:24;5.70;99.90
27413;DHT22;14871;52.702;5.230;2023-02-28T07:27:50;5.50;99.90
27413;DHT22;14871;52.702;5.230;2023-02-28T07:30:15;5.40;99.90
27413;DHT22;14871;52.702;5.230;2023-02-28T07:32:41;5.50;99.90
27413;DHT22;14871;52.702;5.230;2023-02-28T07:35:07;5.50;99.90
27413;DHT22;14871;52.702;5.230;2023-02-28T07:37:33;5.40;99.90
27413;DHT22;14871;52.702;5.230;2023-02-28T07:40:03;5.50;99.90
27413;DHT22;14871;52.702;5.230;2023-02-28T07:42:32;5.40;99.90
27413;DHT22;14871;52.702;5.230;2023-02-28T07:44:57;5.20;99.90
27413;DHT22;14871;52.702;5.230;2023-02-28T07:47:24;5.20;99.90
27413;DHT22;14871;52.702;5.230;2023-02-28T07:49:50;5.20;99.90
27413;DHT22;14871;52.702;5.230;2023-02-28T07:52:16;5.70;99.90
27413;DHT22;14871;52.702;5.230;2023-02-28T07:54:41;5.60;99.90
27413;DHT22;14871;52.702;5.230;2023-02-28T07:57:07;5.60;99.90
27413;DHT22;14871;52.702;5.230;2023-02-28T07:59:33;5.60;99.90
27413;DHT22;14871;52.702;5.230;2023-02-28T08:01:58;5.70;99.90
27413;DHT22;14871;52.702;5.230;2023-02-28T08:04:24;5.60;99.90
27413;DHT22;14871;52.702;5.230;2023-02-28T08:06:50;5.40;99.90
27413;DHT22;14871;52.702;5.230;2023-02-28T08:09:18;5.40;99.90
27413;DHT22;14871;52.702;5.230;2023-02-28T08:11:44;5.50;99.90
27413;DHT22;14871;52.702;5.230;2023-02-28T08:14:10;5.60;99.90
27413;DHT22;14871;52.702;5.230;2023-02-28T08:16:35;5.70;99.90
27413;DHT22;14871;52.702;5.230;2023-02-28T08:19:01;5.40;99.90
27413;DHT22;14871;52.702;5.230;2023-02-28T08:21:27;5.50;99.90
27413;DHT22;14871;52.702;5.230;2023-02-28T08:23:52;5.50;99.90
27413;DHT22;14871;52.702;5.230;2023-02-28T08:26:19;5.80;99.90
27413;DHT22;14871;52.702;5.230;2023-02-28T08:28:45;5.40;99.90
27413;DHT22;14871;52.702;5.230;2023-02-28T08:31:12;5.70;99.90
27413;DHT22;14871;52.702;5.230;2023-02-28T08:33:39;6.00;99.90
27413;DHT22;14871;52.702;5.230;2023-02-28T08:36:06;6.00;99.90
27413;DHT22;14871;52.702;5.230;2023-02-28T08:38:32;5.90;99.90
27413;DHT22;14871;52.702;5.230;2023-02-28T08:41:00;5.70;99.90
27413;DHT22;14871;52.702;5.230;2023-02-28T08:43:26;5.80;99.90
27413;DHT22;14871;52.702;5.230;2023-02-28T08:45:55;5.90;99.90
27413;DHT22;14871;52.702;5.230;2023-02-28T08:48:23;6.00;99.90
27413;DHT22;14871;52.702;5.230;2023-02-28T08:51:04;6.10;99.90
27413;DHT22;14871;52.702;5.230;2023-02-28T08:53:30;6.00;99.90
27413;DHT22;14871;52.702;5.230;2023-02-28T08:56:01;6.10;99.90
27413;DHT22;14871;52.702;5.230;2023-02-28T08:58:27;6.00;99.90
27413;DHT22;14871;52.702;5.230;2023-02-28T09:00:53;5.90;99.90
27413;DHT22;14871;52.702;5.230;2023-02-28T09:03:20;6.10;99.90
27413;DHT22;14871;52.702;5.230;2023-02-28T09:05:56;6.00;99.90
27413;DHT22;14871;52.702;5.230;2023-02-28T09:08:24;6.20;99.90
27413;DHT22;14871;52.702;5.230;2023-02-28T09:10:50;6.50;99.90
27413;DHT22;14871;52.702;5.230;2023-02-28T09:13:16;6.50;99.90
27413;DHT22;14871;52.702;5.230;2023-02-28T09:15:42;6.50;99.90
27413;DHT22;14871;52.702;5.230;2023-02-28T09:18:07;6.60;99.90
27413;DHT22;14871;52.702;5.230;2023-02-28T09:20:33;6.60;99.90
27413;DHT22;14871;52.702;5.230;2023-02-28T09:22:59;6.50;99.90
27413;DHT22;14871;52.702;5.230;2023-02-28T09:25:24;6.70;99.90
27413;DHT22;14871;52.702;5.230;2023-02-28T09:27:50;6.80;99.90
27413;DHT22;14871;52.702;5.230;2023-02-28T09:30:16;6.80;99.90
27413;DHT22;14871;52.702;5.230;2023-02-28T09:32:41;6.60;99.90
27413;DHT22;14871;52.702;5.230;2023-02-28T09:35:07;6.70;99.90
27413;DHT22;14871;52.702;5.230;2023-02-28T09:37:38;6.80;99.90
27413;DHT22;14871;52.702;5.230;2023-02-28T09:40:04;6.90;99.90
27413;DHT22;14871;52.702;5.230;2023-02-28T09:42:33;6.90;99.90
27413;DHT22;14871;52.702;5.230;2023-02-28T09:45:02;6.90;99.90
27413;DHT22;14871;52.702;5.230;2023-02-28T09:47:36;6.90;99.90
27413;DHT22;14871;52.702;5.230;2023-02-28T09:52:38;7.20;99.90
27413;DHT22;14871;52.702;5.230;2023-02-28T10:01:25;7.20;99.90
27413;DHT22;14871;52.702;5.230;2023-02-28T10:06:33;7.30;99.90
27413;DHT22;14871;52.702;5.230;2023-02-28T10:09:27;7.30;99.90
27413;DHT22;14871;52.702;5.230;2023-02-28T10:12:00;7.40;99.90
27413;DHT22;14871;52.702;5.230;2023-02-28T10:14:29;7.40;99.90
27413;DHT22;14871;52.702;5.230;2023-02-28T10:16:58;7.50;99.90
27413;DHT22;14871;52.702;5.230;2023-02-28T10:22:25;7.70;99.90
27413;DHT22;14871;52.702;5.230;2023-02-28T10:24:54;7.70;99.90
27413;DHT22;14871;52.702;5.230;2023-02-28T10:27:24;7.90;99.90
27413;DHT22;14871;52.702;5.230;2023-02-28T10:29:55;8.20;99.90
27413;DHT22;14871;52.702;5.230;2023-02-28T10:32:25;8.30;99.90
27413;DHT22;14871;52.702;5.230;2023-02-28T10:35:10;8.40;99.90
27413;DHT22;14871;52.702;5.230;2023-02-28T10:37:41;8.20;99.90
27413;DHT22;14871;52.702;5.230;2023-02-28T10:43:19;8.30;99.90
27413;DHT22;14871;52.702;5.230;2023-02-28T10:46:09;8.30;99.90
27413;DHT22;14871;52.702;5.230;2023-02-28T10:48:49;8.50;99.90
27413;DHT22;14871;52.702;5.230;2023-02-28T10:51:18;8.30;99.90
27413;DHT22;14871;52.702;5.230;2023-02-28T10:53:51;8.20;99.90
27413;DHT22;14871;52.702;5.230;2023-02-28T10:56:25;8.00;99.90
27413;DHT22;14871;52.702;5.230;2023-02-28T10:59:02;7.90;99.90
27413;DHT22;14871;52.702;5.230;2023-02-28T11:01:46;8.00;99.90
27413;DHT22;14871;52.702;5.230;2023-02-28T11:07:18;8.50;99.90
27413;DHT22;14871;52.702;5.230;2023-02-28T11:09:50;8.50;99.90
27413;DHT22;14871;52.702;5.230;2023-02-28T11:12:37;8.30;99.90
27413;DHT22;14871;52.702;5.230;2023-02-28T11:15:24;8.20;99.90
27413;DHT22;14871;52.702;5.230;2023-02-28T11:18:17;8.50;99.90
27413;DHT22;14871;52.702;5.230;2023-02-28T11:20:54;8.80;99.90
27413;DHT22;14871;52.702;5.230;2023-02-28T11:23:21;9.40;99.90
27413;DHT22;14871;52.702;5.230;2023-02-28T11:25:56;10.00;99.90
27413;DHT22;14871;52.702;5.230;2023-02-28T11:28:35;10.30;99.90
27413;DHT22;14871;52.702;5.230;2023-02-28T11:31:04;10.80;99.90
27413;DHT22;14871;52.702;5.230;2023-02-28T11:36:25;11.60;99.90
27413;DHT22;14871;52.702;5.230;2023-02-28T11:38:54;11.60;99.90
27413;DHT22;14871;52.702;5.230;2023-02-28T11:44:15;11.50;99.90
27413;DHT22;14871;52.702;5.230;2023-02-28T11:46:52;11.70;99.90
27413;DHT22;14871;52.702;5.230;2023-02-28T11:52:21;12.20;99.20
27413;DHT22;14871;52.702;5.230;2023-02-28T11:58:13;12.90;98.00
27413;DHT22;14871;52.702;5.230;2023-02-28T12:01:11;14.20;95.70
27413;DHT22;14871;52.702;5.230;2023-02-28T12:03:58;14.40;93.00
27413;DHT22;14871;52.702;5.230;2023-02-28T12:12:07;15.60;77.60
27413;DHT22;14871;52.702;5.230;2023-02-28T12:15:02;15.90;79.30
27413;DHT22;14871;52.702;5.230;2023-02-28T12:20:32;17.30;69.40
27413;DHT22;14871;52.702;5.230;2023-02-28T12:28:01;18.00;69.00
27413;DHT22;14871;52.702;5.230;2023-02-28T12:30:33;18.40;69.60
27413;DHT22;14871;52.702;5.230;2023-02-28T12:33:09;18.80;60.30
27413;DHT22;14871;52.702;5.230;2023-02-28T12:35:52;19.00;57.80
27413;DHT22;14871;52.702;5.230;2023-02-28T12:38:36;19.10;60.30
27413;DHT22;14871;52.702;5.230;2023-02-28T12:41:09;19.10;60.60
27413;DHT22;14871;52.702;5.230;2023-02-28T12:43:43;18.90;60.20
27413;DHT22;14871;52.702;5.230;2023-02-28T12:46:19;18.90;58.00
27413;DHT22;14871;52.702;5.230;2023-02-28T12:48:50;19.40;59.10
27413;DHT22;14871;52.702;5.230;2023-02-28T12:51:18;18.90;55.90
27413;DHT22;14871;52.702;5.230;2023-02-28T12:53:57;18.90;56.40
27413;DHT22;14871;52.702;5.230;2023-02-28T12:59:19;19.70;55.60
27413;DHT22;14871;52.702;5.230;2023-02-28T13:07:36;20.70;52.20
27413;DHT22;14871;52.702;5.230;2023-02-28T13:10:08;20.90;52.60
27413;DHT22;14871;52.702;5.230;2023-02-28T13:12:35;21.00;51.80
27413;DHT22;14871;52.702;5.230;2023-02-28T13:15:26;21.10;51.50
27413;DHT22;14871;52.702;5.230;2023-02-28T13:17:56;21.00;49.90
27413;DHT22;14871;52.702;5.230;2023-02-28T13:20:25;21.10;50.30
27413;DHT22;14871;52.702;5.230;2023-02-28T13:22:54;20.30;50.40
27413;DHT22;14871;52.702;5.230;2023-02-28T13:27:50;20.60;50.80
27413;DHT22;14871;52.702;5.230;2023-02-28T13:38:50;21.60;49.30
27413;DHT22;14871;52.702;5.230;2023-02-28T13:44:05;21.10;49.30
27413;DHT22;14871;52.702;5.230;2023-02-28T13:46:38;21.20;51.00
27413;DHT22;14871;52.702;5.230;2023-02-28T13:49:28;21.70;49.60
27413;DHT22;14871;52.702;5.230;2023-02-28T13:51:55;21.60;47.40
27413;DHT22;14871;52.702;5.230;2023-02-28T14:05:36;21.80;50.10
27413;DHT22;14871;52.702;5.230;2023-02-28T14:08:16;21.50;49.00
27413;DHT22;14871;52.702;5.230;2023-02-28T14:10:44;21.60;48.20
27413;DHT22;14871;52.702;5.230;2023-02-28T14:16:11;21.60;48.90
27413;DHT22;14871;52.702;5.230;2023-02-28T14:18:41;21.50;50.10
27413;DHT22;14871;52.702;5.230;2023-02-28T14:21:28;21.60;49.30
27413;DHT22;14871;52.702;5.230;2023-02-28T14:32:45;22.00;47.90
27413;DHT22;14871;52.702;5.230;2023-02-28T14:38:06;21.70;47.20
27413;DHT22;14871;52.702;5.230;2023-02-28T14:40:38;22.00;48.80
27413;DHT22;14871;52.702;5.230;2023-02-28T14:43:06;21.70;47.40
27413;DHT22;14871;52.702;5.230;2023-02-28T14:45:42;21.60;48.50
27413;DHT22;14871;52.702;5.230;2023-02-28T14:48:09;21.60;48.40
27413;DHT22;14871;52.702;5.230;2023-02-28T14:50:36;21.90;48.10
27413;DHT22;14871;52.702;5.230;2023-02-28T14:53:02;21.60;47.40
27413;DHT22;14871;52.702;5.230;2023-02-28T14:55:31;21.50;48.10
27413;DHT22;14871;52.702;5.230;2023-02-28T14:58:05;21.40;48.00
27413;DHT22;14871;52.702;5.230;2023-02-28T15:00:37;21.30;48.60
27413;DHT22;14871;52.702;5.230;2023-02-28T15:03:33;21.10;47.50
27413;DHT22;14871;52.702;5.230;2023-02-28T15:06:01;21.10;47.80
27413;DHT22;14871;52.702;5.230;2023-02-28T15:08:30;20.80;48.70
27413;DHT22;14871;52.702;5.230;2023-02-28T15:11:19;20.80;48.50
27413;DHT22;14871;52.702;5.230;2023-02-28T15:13:52;21.10;48.80
27413;DHT22;14871;52.702;5.230;2023-02-28T15:16:25;21.00;48.50
27413;DHT22;14871;52.702;5.230;2023-02-28T15:19:00;21.00;48.20
27413;DHT22;14871;52.702;5.230;2023-02-28T15:21:30;20.70;48.00
27413;DHT22;14871;52.702;5.230;2023-02-28T15:26:39;20.70;47.50
27413;DHT22;14871;52.702;5.230;2023-02-28T15:29:17;20.50;48.70
27413;DHT22;14871;52.702;5.230;2023-02-28T15:32:02;20.50;49.40
27413;DHT22;14871;52.702;5.230;2023-02-28T15:36:59;20.10;50.10
27413;DHT22;14871;52.702;5.230;2023-02-28T15:39:28;20.10;49.80
27413;DHT22;14871;52.702;5.230;2023-02-28T15:42:21;20.00;49.40
27413;DHT22;14871;52.702;5.230;2023-02-28T15:44:47;19.90;49.00
27413;DHT22;14871;52.702;5.230;2023-02-28T15:47:20;19.70;51.00
27413;DHT22;14871;52.702;5.230;2023-02-28T15:50:01;19.60;51.00
27413;DHT22;14871;52.702;5.230;2023-02-28T15:52:40;19.80;50.20
27413;DHT22;14871;52.702;5.230;2023-02-28T15:55:22;19.20;51.90
27413;DHT22;14871;52.702;5.230;2023-02-28T15:57:51;19.00;52.00
27413;DHT22;14871;52.702;5.230;2023-02-28T16:00:23;18.90;52.20
27413;DHT22;14871;52.702;5.230;2023-02-28T16:02:49;18.30;53.90
27413;DHT22;14871;52.702;5.230;2023-02-28T16:05:29;18.30;53.90
27413;DHT22;14871;52.702;5.230;2023-02-28T16:08:00;18.60;53.30
27413;DHT22;14871;52.702;5.230;2023-02-28T16:10:27;18.20;54.70
27413;DHT22;14871;52.702;5.230;2023-02-28T16:12:56;17.90;55.70
27413;DHT22;14871;52.702;5.230;2023-02-28T16:15:27;17.70;55.30
27413;DHT22;14871;52.702;5.230;2023-02-28T16:17:54;17.40;55.70
27413;DHT22;14871;52.702;5.230;2023-02-28T16:20:26;17.40;55.80
27413;DHT22;14871;52.702;5.230;2023-02-28T16:22:52;17.40;56.30
27413;DHT22;14871;52.702;5.230;2023-02-28T16:25:25;17.20;56.50
27413;DHT22;14871;52.702;5.230;2023-02-28T16:27:52;17.20;56.50
27413;DHT22;14871;52.702;5.230;2023-02-28T16:30:22;17.10;57.00
27413;DHT22;14871;52.702;5.230;2023-02-28T16:32:48;17.00;56.90
27413;DHT22;14871;52.702;5.230;2023-02-28T16:35:14;16.80;57.30
27413;DHT22;14871;52.702;5.230;2023-02-28T16:37:40;16.10;58.70
27413;DHT22;14871;52.702;5.230;2023-02-28T16:40:17;15.80;59.20
27413;DHT22;14871;52.702;5.230;2023-02-28T16:42:45;15.30;61.10
27413;DHT22;14871;52.702;5.230;2023-02-28T16:45:22;15.00;61.80
27413;DHT22;14871;52.702;5.230;2023-02-28T16:47:49;14.80;62.90
27413;DHT22;14871;52.702;5.230;2023-02-28T16:50:17;14.50;63.10
27413;DHT22;14871;52.702;5.230;2023-02-28T16:52:43;14.30;63.40
27413;DHT22;14871;52.702;5.230;2023-02-28T16:55:08;14.20;64.20
27413;DHT22;14871;52.702;5.230;2023-02-28T16:57:34;14.10;64.80
27413;DHT22;14871;52.702;5.230;2023-02-28T17:00:00;13.90;65.70
27413;DHT22;14871;52.702;5.230;2023-02-28T17:02:25;13.80;66.40
27413;DHT22;14871;52.702;5.230;2023-02-28T17:04:51;13.50;67.70
27413;DHT22;14871;52.702;5.230;2023-02-28T17:07:17;13.50;68.00
27413;DHT22;14871;52.702;5.230;2023-02-28T17:09:43;13.60;67.90
27413;DHT22;14871;52.702;5.230;2023-02-28T17:12:12;13.60;67.70
27413;DHT22;14871;52.702;5.230;2023-02-28T17:14:38;13.40;68.90
27413;DHT22;14871;52.702;5.230;2023-02-28T17:17:07;13.10;69.60
27413;DHT22;14871;52.702;5.230;2023-02-28T17:19:33;13.10;70.30
27413;DHT22;14871;52.702;5.230;2023-02-28T17:22:01;12.90;71.30
27413;DHT22;14871;52.702;5.230;2023-02-28T17:24:28;12.80;72.10
27413;DHT22;14871;52.702;5.230;2023-02-28T17:26:54;12.80;72.10
27413;DHT22;14871;52.702;5.230;2023-02-28T17:29:21;12.70;72.90
27413;DHT22;14871;52.702;5.230;2023-02-28T17:31:47;12.50;73.40
27413;DHT22;14871;52.702;5.230;2023-02-28T17:34:13;12.50;73.50
27413;DHT22;14871;52.702;5.230;2023-02-28T17:36:47;12.30;74.50
27413;DHT22;14871;52.702;5.230;2023-02-28T17:39:14;12.40;74.90
27413;DHT22;14871;52.702;5.230;2023-02-28T17:41:41;12.30;74.30
27413;DHT22;14871;52.702;5.230;2023-02-28T17:44:07;12.30;74.20
27413;DHT22;14871;52.702;5.230;2023-02-28T17:46:33;12.00;75.60
27413;DHT22;14871;52.702;5.230;2023-02-28T17:48:59;12.10;75.50
27413;DHT22;14871;52.702;5.230;2023-02-28T17:51:25;11.80;77.00
27413;DHT22;14871;52.702;5.230;2023-02-28T17:53:51;11.50;77.70
27413;DHT22;14871;52.702;5.230;2023-02-28T17:56:22;11.60;78.00
27413;DHT22;14871;52.702;5.230;2023-02-28T17:58:49;11.70;77.20
27413;DHT22;14871;52.702;5.230;2023-02-28T18:01:15;11.80;76.60
27413;DHT22;14871;52.702;5.230;2023-02-28T18:03:41;11.70;76.60